createdAt,value
2022-08-07T00:00:25.134Z,40.44
2022-08-07T00:02:53.595Z,40.32
2022-08-07T00:05:20.843Z,40.25
2022-08-07T00:07:58.332Z,40.34
2022-08-07T00:10:30.632Z,40.73
2022-08-07T00:13:01.250Z,40.29
2022-08-07T00:15:37.982Z,40.27
2022-08-07T00:18:19.899Z,40.49
2022-08-07T00:20:50.810Z,40.54
2022-08-07T00:23:18.394Z,40.45
2022-08-07T00:25:52.469Z,40.27
2022-08-07T00:28:33.254Z,40.45
2022-08-07T00:31:05.972Z,40.29
2022-08-07T00:33:34.027Z,40.45
2022-08-07T00:36:00.923Z,40.44
2022-08-07T00:38:31.821Z,40.54
2022-08-07T00:41:00.662Z,40.20
2022-08-07T00:43:58.926Z,40.26
2022-08-07T00:46:14.537Z,40.04
2022-08-07T00:48:42.180Z,40.17
2022-08-07T00:51:09.918Z,39.97
2022-08-07T00:53:38.424Z,40.25
2022-08-07T00:56:07.356Z,40.35
2022-08-07T00:58:46.893Z,39.93
2022-08-07T01:01:19.377Z,40.17
2022-08-07T01:03:57.020Z,39.84
2022-08-07T01:06:27.369Z,39.83
2022-08-07T01:08:55.650Z,39.74
2022-08-07T01:12:10.025Z,39.88
2022-08-07T01:14:17.127Z,40.39
2022-08-07T01:16:48.132Z,40.23
2022-08-07T01:19:19.119Z,40.18
2022-08-07T01:21:47.225Z,40.13
2022-08-07T01:24:14.617Z,39.83
2022-08-07T01:26:51.962Z,40.11
2022-08-07T01:29:19.992Z,40.16
2022-08-07T01:31:48.127Z,39.98
2022-08-07T01:34:18.772Z,40.22
2022-08-07T01:36:52.588Z,39.97
2022-08-07T01:39:25.178Z,40.01
2022-08-07T01:42:37.031Z,39.95
2022-08-07T01:44:53.659Z,39.69
2022-08-07T01:48:19.666Z,40.21
2022-08-07T01:50:09.164Z,39.78
2022-08-07T01:52:49.389Z,39.82
2022-08-07T01:55:24.330Z,39.72
2022-08-07T01:58:05.676Z,39.85
2022-08-07T02:00:45.437Z,39.78
2022-08-07T02:03:26.279Z,39.49
2022-08-07T02:05:59.590Z,38.96
2022-08-07T02:08:28.861Z,39.56
2022-08-07T02:10:59.421Z,38.88
2022-08-07T02:13:57.334Z,38.77
2022-08-07T02:16:17.045Z,39.23
2022-08-07T02:18:47.976Z,39.36
2022-08-07T02:21:24.368Z,39.01
2022-08-07T02:23:52.922Z,39.21
2022-08-07T02:26:32.344Z,39.35
2022-08-07T02:29:02.726Z,39.17
2022-08-07T02:31:33.973Z,39.40
2022-08-07T02:34:10.902Z,39.25
2022-08-07T02:36:39.760Z,39.57
2022-08-07T02:39:17.310Z,39.48
2022-08-07T02:41:56.779Z,39.67
2022-08-07T02:44:27.469Z,39.77
2022-08-07T02:47:03.697Z,39.50
2022-08-07T02:49:57.614Z,39.62
2022-08-07T02:52:31.213Z,39.94
2022-08-07T02:55:01.627Z,39.79
2022-08-07T02:57:31.586Z,39.91
2022-08-07T03:00:04.969Z,40.07
2022-08-07T03:02:32.969Z,40.07
2022-08-07T03:05:05.022Z,40.10
2022-08-07T03:07:58.837Z,40.38
2022-08-07T03:10:23.452Z,40.38
2022-08-07T03:12:51.923Z,40.63
2022-08-07T03:15:30.132Z,40.36
2022-08-07T03:18:07.124Z,40.62
2022-08-07T03:20:36.365Z,40.78
2022-08-07T03:23:03.623Z,41.00
2022-08-07T03:25:40.177Z,40.98
2022-08-07T03:28:38.510Z,41.23
2022-08-07T03:31:24.663Z,41.38
2022-08-07T03:34:03.087Z,41.54
2022-08-07T03:36:31.141Z,41.59
2022-08-07T03:39:05.490Z,41.62
2022-08-07T03:41:42.348Z,41.56
2022-08-07T03:44:15.254Z,42.00
2022-08-07T03:47:11.472Z,41.66
2022-08-07T03:49:31.131Z,41.82
2022-08-07T03:52:01.148Z,41.65
2022-08-07T03:54:36.304Z,42.00
2022-08-07T03:58:34.531Z,42.34
2022-08-07T04:00:04.639Z,42.13
2022-08-07T04:02:33.246Z,42.36
2022-08-07T04:05:00.147Z,42.60
2022-08-07T04:07:41.678Z,42.73
2022-08-07T04:10:15.307Z,42.62
2022-08-07T04:12:42.781Z,42.24
2022-08-07T04:15:10.690Z,42.79
2022-08-07T04:18:31.303Z,42.42
2022-08-07T04:20:25.843Z,42.64
2022-08-07T04:23:02.000Z,42.76
2022-08-07T04:25:38.993Z,43.04
2022-08-07T04:28:13.491Z,42.75
2022-08-07T04:30:55.345Z,42.62
2022-08-07T04:33:25.282Z,42.79
2022-08-07T04:35:53.847Z,42.65
2022-08-07T04:38:22.017Z,42.84
2022-08-07T04:40:51.595Z,42.99
2022-08-07T04:44:09.570Z,43.25
2022-08-07T04:46:25.785Z,43.20
2022-08-07T04:48:59.235Z,43.16
2022-08-07T04:51:35.683Z,43.13
2022-08-07T04:54:19.366Z,43.38
2022-08-07T04:58:14.296Z,43.56
2022-08-07T05:00:11.022Z,43.54
2022-08-07T05:02:43.390Z,43.52
2022-08-07T05:05:53.231Z,43.72
2022-08-07T05:08:15.215Z,43.38
2022-08-07T05:11:02.564Z,43.71
2022-08-07T05:14:55.032Z,43.78
2022-08-07T05:16:24.335Z,43.37
2022-08-07T05:18:56.514Z,43.96
2022-08-07T05:22:00.169Z,43.60
2022-08-07T05:24:17.336Z,43.47
2022-08-07T05:26:46.238Z,43.80
2022-08-07T05:29:15.748Z,43.66
2022-08-07T05:31:51.241Z,43.76
2022-08-07T05:34:20.140Z,43.39
2022-08-07T05:36:54.568Z,43.75
2022-08-07T05:40:13.675Z,43.82
2022-08-07T05:42:12.265Z,43.59
2022-08-07T05:44:41.563Z,43.52
2022-08-07T05:47:18.225Z,43.57
2022-08-07T05:49:48.208Z,43.37
2022-08-07T05:52:17.215Z,43.70
2022-08-07T05:54:55.640Z,43.60
2022-08-07T05:57:26.591Z,43.46
2022-08-07T05:59:58.351Z,43.54
2022-08-07T06:02:28.893Z,43.80
2022-08-07T06:04:57.981Z,43.40
2022-08-07T06:08:05.368Z,43.57
2022-08-07T06:10:15.487Z,43.63
2022-08-07T06:12:42.362Z,43.94
2022-08-07T06:15:09.946Z,43.84
2022-08-07T06:17:53.935Z,43.68
2022-08-07T06:20:49.454Z,43.71
2022-08-07T06:23:46.320Z,43.60
2022-08-07T06:25:58.952Z,44.03
2022-08-07T06:28:27.395Z,43.77
2022-08-07T06:30:55.630Z,43.81
2022-08-07T06:33:22.933Z,43.89
2022-08-07T06:36:06.871Z,44.18
2022-08-07T06:38:36.576Z,43.72
2022-08-07T06:41:09.812Z,44.05
2022-08-07T06:43:46.214Z,44.17
2022-08-07T06:46:13.671Z,44.18
2022-08-07T06:48:42.135Z,43.74
2022-08-07T06:51:33.262Z,43.95
2022-08-07T06:55:29.492Z,44.17
2022-08-07T06:56:51.113Z,43.91
2022-08-07T07:00:12.817Z,44.49
2022-08-07T07:02:12.083Z,44.19
2022-08-07T07:04:43.511Z,44.09
2022-08-07T07:08:00.331Z,44.24
2022-08-07T07:10:08.407Z,44.20
2022-08-07T07:12:50.372Z,43.92
2022-08-07T07:15:23.803Z,43.74
2022-08-07T07:18:03.031Z,44.39
2022-08-07T07:20:35.753Z,44.32
2022-08-07T07:24:08.992Z,44.56
2022-08-07T07:26:32.488Z,44.53
2022-08-07T07:28:48.265Z,44.21
2022-08-07T07:31:44.330Z,44.24
2022-08-07T07:34:13.606Z,44.42
2022-08-07T07:36:48.046Z,44.76
2022-08-07T07:39:22.722Z,44.01
2022-08-07T07:42:13.140Z,44.30
2022-08-07T07:44:42.202Z,44.56
2022-08-07T07:47:23.063Z,44.19
2022-08-07T07:50:32.772Z,44.42
2022-08-07T07:52:42.054Z,44.65
2022-08-07T07:55:11.016Z,44.38
2022-08-07T07:57:51.770Z,44.45
2022-08-07T08:00:29.583Z,44.79
2022-08-07T08:03:06.039Z,44.45
2022-08-07T08:05:50.875Z,44.20
2022-08-07T08:08:34.815Z,44.54
2022-08-07T08:11:04.286Z,44.60
2022-08-07T08:13:33.420Z,44.18
2022-08-07T08:16:08.847Z,44.29
2022-08-07T08:18:39.400Z,44.62
2022-08-07T08:21:07.459Z,44.24
2022-08-07T08:23:53.374Z,44.50
2022-08-07T08:26:40.061Z,44.65
2022-08-07T08:29:08.283Z,44.56
2022-08-07T08:32:16.729Z,44.42
2022-08-07T08:34:27.287Z,44.16
2022-08-07T08:37:00.339Z,44.17
2022-08-07T08:39:39.339Z,44.27
2022-08-07T08:42:47.914Z,43.87
2022-08-07T08:45:41.957Z,44.29
2022-08-07T08:48:38.775Z,44.03
2022-08-07T08:52:00.872Z,44.59
2022-08-07T08:54:17.679Z,44.28
2022-08-07T08:56:47.999Z,44.24
2022-08-07T08:59:24.061Z,44.29
2022-08-07T09:02:00.796Z,43.84
2022-08-07T09:04:53.608Z,44.19
2022-08-07T09:07:45.900Z,44.12
2022-08-07T09:10:13.514Z,44.19
2022-08-07T09:12:53.043Z,44.09
2022-08-07T09:16:22.309Z,44.15
2022-08-07T09:18:22.595Z,44.29
2022-08-07T09:21:05.561Z,44.07
2022-08-07T09:24:33.364Z,43.92
2022-08-07T09:27:09.123Z,43.40
2022-08-07T09:30:06.115Z,43.12
2022-08-07T09:32:43.955Z,43.11
2022-08-07T09:36:01.383Z,43.23
2022-08-07T09:38:12.342Z,42.85
2022-08-07T09:40:51.148Z,42.80
2022-08-07T09:44:03.455Z,42.90
2022-08-07T09:47:42.499Z,42.97
2022-08-07T09:50:02.654Z,42.32
2022-08-07T09:52:34.153Z,42.24
2022-08-07T09:55:05.586Z,42.71
2022-08-07T09:57:56.194Z,42.45
2022-08-07T10:00:29.994Z,42.53
2022-08-07T10:03:08.512Z,41.77
2022-08-07T10:06:04.373Z,42.37
2022-08-07T10:11:59.790Z,42.17
2022-08-07T10:14:22.678Z,41.90
2022-08-07T10:17:14.479Z,41.48
2022-08-07T10:19:43.419Z,41.95
2022-08-07T10:22:17.990Z,41.36
2022-08-07T10:24:57.601Z,41.43
2022-08-07T10:27:45.953Z,41.24
2022-08-07T10:30:16.701Z,41.36
2022-08-07T10:33:02.161Z,41.60
2022-08-07T10:35:55.507Z,41.16
2022-08-07T10:38:42.038Z,41.14
2022-08-07T10:41:51.773Z,41.03
2022-08-07T10:44:33.792Z,41.19
2022-08-07T10:47:18.640Z,41.03
2022-08-07T10:50:11.929Z,40.81
2022-08-07T10:52:52.058Z,41.06
2022-08-07T10:55:39.345Z,40.72
2022-08-07T10:58:15.651Z,40.75
2022-08-07T11:00:50.265Z,40.97
2022-08-07T11:03:23.943Z,40.59
2022-08-07T11:06:23.177Z,40.76
2022-08-07T11:09:04.097Z,40.84
2022-08-07T11:11:51.801Z,40.93
2022-08-07T11:14:46.299Z,40.47
2022-08-07T11:17:13.742Z,40.80
2022-08-07T11:19:49.966Z,40.47
2022-08-07T11:22:32.368Z,40.89
2022-08-07T11:25:24.124Z,40.46
2022-08-07T11:28:06.191Z,40.38
2022-08-07T11:30:43.946Z,40.48
2022-08-07T11:33:53.580Z,40.25
2022-08-07T11:36:40.811Z,40.34
2022-08-07T11:39:25.979Z,40.16
2022-08-07T11:42:29.799Z,40.09
2022-08-07T11:44:57.520Z,40.35
2022-08-07T11:47:55.925Z,39.68
2022-08-07T11:50:57.222Z,39.70
2022-08-07T11:54:00.710Z,39.69
2022-08-07T11:56:52.266Z,39.46
2022-08-07T12:00:07.800Z,39.78
2022-08-07T12:02:20.942Z,39.41
2022-08-07T12:05:02.381Z,39.66
2022-08-07T12:07:38.753Z,39.79
2022-08-07T12:10:10.465Z,39.30
2022-08-07T12:12:55.361Z,39.31
2022-08-07T12:15:46.714Z,39.25
2022-08-07T12:18:29.714Z,39.41
2022-08-07T12:21:00.139Z,39.60
2022-08-07T12:24:06.153Z,39.43
2022-08-07T12:26:40.683Z,39.65
2022-08-07T12:29:14.049Z,39.23
2022-08-07T12:31:53.067Z,39.36
2022-08-07T12:34:29.451Z,39.64
2022-08-07T12:36:57.175Z,39.64
2022-08-07T12:39:43.590Z,39.67
2022-08-07T12:42:15.349Z,39.81
2022-08-07T12:44:45.434Z,40.00
2022-08-07T12:47:31.118Z,40.53
2022-08-07T12:50:38.552Z,39.81
2022-08-07T12:53:18.235Z,40.18
2022-08-07T12:56:02.614Z,40.58
2022-08-07T12:58:37.220Z,40.14
2022-08-07T13:01:32.448Z,40.43
2022-08-07T13:04:32.661Z,40.14
2022-08-07T13:07:07.452Z,40.51
2022-08-07T13:10:19.347Z,40.81
2022-08-07T13:12:38.102Z,40.50
2022-08-07T13:15:29.801Z,40.38
2022-08-07T13:18:26.767Z,40.34
2022-08-07T13:21:14.073Z,40.14
2022-08-07T13:24:11.458Z,40.17
2022-08-07T13:26:49.360Z,40.26
2022-08-07T13:29:34.786Z,40.33
2022-08-07T13:32:31.245Z,39.72
2022-08-07T13:35:08.937Z,40.23
2022-08-07T13:37:59.018Z,39.95
2022-08-07T13:40:35.611Z,40.06
2022-08-07T13:43:11.714Z,40.01
2022-08-07T13:46:11.756Z,40.08
2022-08-07T13:48:33.847Z,39.99
2022-08-07T13:51:20.423Z,39.88
2022-08-07T13:54:00.489Z,39.55
2022-08-07T13:56:36.016Z,39.68
2022-08-07T13:59:15.894Z,39.99
2022-08-07T14:01:59.242Z,39.44
2022-08-07T14:04:35.610Z,39.47
2022-08-07T14:07:09.645Z,39.73
2022-08-07T14:10:00.973Z,39.03
2022-08-07T14:12:54.162Z,39.44
2022-08-07T14:15:35.918Z,39.02
2022-08-07T14:18:23.942Z,39.12
2022-08-07T14:20:54.669Z,38.88
2022-08-07T14:23:58.639Z,39.00
2022-08-07T14:26:29.807Z,39.13
2022-08-07T14:29:04.303Z,39.25
2022-08-07T14:31:43.073Z,39.34
2022-08-07T14:34:23.598Z,39.16
2022-08-07T14:36:55.998Z,39.51
2022-08-07T14:40:16.128Z,39.36
2022-08-07T14:42:20.664Z,40.56
2022-08-07T14:44:53.017Z,39.25
2022-08-07T14:47:20.801Z,39.00
2022-08-07T14:52:36.726Z,39.26
2022-08-07T14:55:05.161Z,39.00
2022-08-07T14:57:58.126Z,39.38
2022-08-07T15:00:30.310Z,39.21
2022-08-07T15:02:59.148Z,39.43
2022-08-07T15:05:26.940Z,39.51
2022-08-07T15:07:58.497Z,39.35
2022-08-07T15:13:25.456Z,39.04
2022-08-07T15:16:03.751Z,39.14
2022-08-07T15:18:43.162Z,39.18
2022-08-07T15:21:44.139Z,39.73
2022-08-07T15:26:57.551Z,39.26
2022-08-07T15:30:10.912Z,39.21
2022-08-07T15:35:15.235Z,39.63
2022-08-07T15:38:04.420Z,39.43
2022-08-07T15:40:36.214Z,39.19
2022-08-07T15:43:06.042Z,39.26
2022-08-07T15:45:58.224Z,39.19
2022-08-07T15:48:32.281Z,39.04
2022-08-07T15:51:09.240Z,38.65
2022-08-07T15:53:53.099Z,38.35
2022-08-07T15:56:24.283Z,38.87
2022-08-07T15:58:58.076Z,38.86
2022-08-07T16:01:38.536Z,38.87
2022-08-07T16:04:14.258Z,38.67
2022-08-07T16:06:50.230Z,38.87
2022-08-07T16:09:22.439Z,39.16
2022-08-07T16:12:12.229Z,39.02
2022-08-07T16:14:42.115Z,38.75
2022-08-07T16:17:16.306Z,38.91
2022-08-07T16:20:01.754Z,38.57
2022-08-07T16:22:33.817Z,38.69
2022-08-07T16:25:48.830Z,39.05
2022-08-07T16:30:05.550Z,38.73
2022-08-07T16:31:50.841Z,39.28
2022-08-07T16:34:26.487Z,39.30
2022-08-07T16:37:02.293Z,39.80
2022-08-07T16:39:49.676Z,39.73
2022-08-07T16:42:36.520Z,40.15
2022-08-07T16:48:13.438Z,39.49
2022-08-07T16:50:48.442Z,39.46
2022-08-07T16:54:02.715Z,39.43
2022-08-07T16:56:14.134Z,39.31
2022-08-07T16:59:11.095Z,38.94
2022-08-07T17:01:41.435Z,39.29
2022-08-07T17:04:24.545Z,39.28
2022-08-07T17:07:02.734Z,39.55
2022-08-07T17:10:06.346Z,39.79
2022-08-07T17:12:47.474Z,39.66
2022-08-07T17:15:15.580Z,39.44
2022-08-07T17:17:46.299Z,39.61
2022-08-07T17:20:20.820Z,39.39
2022-08-07T17:23:08.789Z,40.32
2022-08-07T17:25:51.760Z,39.59
2022-08-07T17:28:24.591Z,40.09
2022-08-07T17:31:17.341Z,40.02
2022-08-07T17:34:32.874Z,39.59
2022-08-07T17:36:58.022Z,39.75
2022-08-07T17:39:57.647Z,39.84
2022-08-07T17:42:58.170Z,39.92
2022-08-07T17:45:35.054Z,39.86
2022-08-07T17:48:04.822Z,39.71
2022-08-07T17:50:50.235Z,39.65
2022-08-07T17:54:00.108Z,39.81
2022-08-07T17:56:25.957Z,39.70
2022-08-07T17:58:56.919Z,39.07
2022-08-07T18:01:36.715Z,39.52
2022-08-07T18:04:21.992Z,39.01
2022-08-07T18:07:20.262Z,39.09
2022-08-07T18:10:07.121Z,39.10
2022-08-07T18:13:09.834Z,39.53
2022-08-07T18:15:54.812Z,39.64
2022-08-07T18:18:46.422Z,39.22
2022-08-07T18:21:53.379Z,39.86
2022-08-07T18:24:33.117Z,39.61
2022-08-07T18:27:06.650Z,39.88
2022-08-07T18:30:07.392Z,40.29
2022-08-07T18:32:23.002Z,40.03
2022-08-07T18:35:08.431Z,41.07
2022-08-07T18:38:58.567Z,40.19
2022-08-07T18:40:42.676Z,41.21
2022-08-07T18:43:42.532Z,40.77
2022-08-07T18:46:32.733Z,40.43
2022-08-07T18:50:31.385Z,40.28
2022-08-07T18:52:51.650Z,41.10
2022-08-07T18:55:40.778Z,41.38
2022-08-07T18:58:10.739Z,41.94
2022-08-07T19:00:53.771Z,41.44
2022-08-07T19:03:38.087Z,41.26
2022-08-07T19:06:09.403Z,40.79
2022-08-07T19:08:46.636Z,41.70
2022-08-07T19:11:36.456Z,40.89
2022-08-07T19:14:11.648Z,40.81
2022-08-07T19:17:06.466Z,40.88
2022-08-07T19:19:53.785Z,40.97
2022-08-07T19:22:34.242Z,40.91
2022-08-07T19:25:05.636Z,41.12
2022-08-07T19:29:03.546Z,41.47
2022-08-07T19:31:04.153Z,41.00
2022-08-07T19:33:16.375Z,40.79
2022-08-07T19:35:52.259Z,40.76
2022-08-07T19:38:20.941Z,40.71
2022-08-07T19:40:51.469Z,40.85
2022-08-07T19:43:43.980Z,40.88
2022-08-07T19:46:12.202Z,40.43
2022-08-07T19:48:53.915Z,40.73
2022-08-07T19:51:53.102Z,40.91
2022-08-07T19:54:30.030Z,41.70
2022-08-07T19:58:02.036Z,41.01
2022-08-07T19:59:53.777Z,41.54
2022-08-07T20:02:29.447Z,40.95
2022-08-07T20:04:57.197Z,42.01
2022-08-07T20:07:47.674Z,41.52
2022-08-07T20:10:35.474Z,41.57
2022-08-07T20:13:22.475Z,41.85
2022-08-07T20:15:51.295Z,42.42
2022-08-07T20:18:21.789Z,42.21
2022-08-07T20:21:02.918Z,42.06
2022-08-07T20:23:43.385Z,42.00
2022-08-07T20:26:29.563Z,41.86
2022-08-07T20:29:01.825Z,41.68
2022-08-07T20:31:43.194Z,41.52
2022-08-07T20:34:14.759Z,40.95
2022-08-07T20:36:51.704Z,41.17
2022-08-07T20:40:03.004Z,40.60
2022-08-07T20:42:14.402Z,40.92
2022-08-07T20:44:45.391Z,40.80
2022-08-07T20:47:18.472Z,40.68
2022-08-07T20:49:59.716Z,40.82
2022-08-07T20:52:50.794Z,41.12
2022-08-07T20:55:20.557Z,41.57
2022-08-07T20:58:02.598Z,41.55
2022-08-07T21:00:47.245Z,41.82
2022-08-07T21:03:17.456Z,41.87
2022-08-07T21:05:54.584Z,41.93
2022-08-07T21:08:37.100Z,41.94
2022-08-07T21:11:10.831Z,41.98
2022-08-07T21:13:57.400Z,41.86
2022-08-07T21:16:30.612Z,41.88
2022-08-07T21:18:58.441Z,41.75
2022-08-07T21:21:49.171Z,41.80
2022-08-07T21:24:47.939Z,41.93
2022-08-07T21:27:24.635Z,41.59
2022-08-07T21:29:58.156Z,42.02
2022-08-07T21:32:49.411Z,41.60
2022-08-07T21:36:03.900Z,40.94
2022-08-07T21:38:30.216Z,41.48
2022-08-07T21:41:11.068Z,41.79
2022-08-07T21:43:56.056Z,40.92
2022-08-07T21:46:33.031Z,41.25
2022-08-07T21:49:15.036Z,40.80
2022-08-07T21:51:50.959Z,40.47
2022-08-07T21:54:27.381Z,40.50
2022-08-07T21:57:03.526Z,40.21
2022-08-07T22:00:09.373Z,38.71
2022-08-07T22:03:07.875Z,40.11
2022-08-07T22:05:50.180Z,40.01
2022-08-07T22:08:21.062Z,40.58
2022-08-07T22:10:51.660Z,40.33
2022-08-07T22:13:24.391Z,40.28
2022-08-07T22:16:43.461Z,39.92
2022-08-07T22:19:23.802Z,40.61
2022-08-07T22:22:17.683Z,39.89
2022-08-07T22:24:52.671Z,40.24
2022-08-07T22:27:33.890Z,40.74
2022-08-07T22:30:13.134Z,40.54
2022-08-07T22:32:44.813Z,39.89
2022-08-07T22:35:12.606Z,39.94
2022-08-07T22:38:03.694Z,39.99
2022-08-07T22:40:50.689Z,39.76
2022-08-07T22:43:36.022Z,39.15
2022-08-07T22:46:21.938Z,38.76
2022-08-07T22:49:09.657Z,39.83
2022-08-07T22:51:42.145Z,39.78
2022-08-07T22:54:27.357Z,39.30
2022-08-07T22:56:56.787Z,39.57
2022-08-07T22:59:26.326Z,39.51
2022-08-07T23:01:52.942Z,39.27
2022-08-07T23:04:29.908Z,40.04
2022-08-07T23:07:03.380Z,39.93
2022-08-07T23:10:37.820Z,39.02
2022-08-07T23:12:50.596Z,39.39
2022-08-07T23:16:07.350Z,39.56
2022-08-07T23:18:18.546Z,39.23
2022-08-07T23:20:53.485Z,39.60
2022-08-07T23:24:05.709Z,39.07
2022-08-07T23:26:13.753Z,39.37
2022-08-07T23:29:02.945Z,38.90
2022-08-07T23:34:21.200Z,38.49
2022-08-07T23:34:52.214Z,39.45
2022-08-07T23:37:37.788Z,39.26
2022-08-07T23:40:30.775Z,38.89
2022-08-07T23:43:16.795Z,38.71
2022-08-07T23:46:03.563Z,38.28
2022-08-07T23:48:56.175Z,39.14
2022-08-07T23:53:17.462Z,38.78
2022-08-07T23:54:44.212Z,39.35
2022-08-07T23:57:18.540Z,39.13
